createdAt,value
2023-01-18T00:01:03.656Z,71.60
2023-01-18T00:03:34.098Z,71.60
2023-01-18T00:06:05.000Z,71.50
2023-01-18T00:08:35.062Z,71.40
2023-01-18T00:11:05.611Z,71.40
2023-01-18T00:13:35.368Z,71.50
2023-01-18T00:16:09.039Z,71.60
2023-01-18T00:18:37.475Z,71.60
2023-01-18T00:21:09.197Z,71.50
2023-01-18T00:23:38.757Z,71.30
2023-01-18T00:26:09.724Z,71.30
2023-01-18T00:28:40.160Z,71.40
2023-01-18T00:31:15.216Z,71.60
2023-01-18T00:33:45.547Z,71.70
2023-01-18T00:36:14.774Z,72.00
2023-01-18T00:38:43.188Z,72.40
2023-01-18T00:41:11.344Z,72.70
2023-01-18T00:43:41.171Z,72.60
2023-01-18T00:46:12.005Z,72.50
2023-01-18T00:48:41.005Z,72.50
2023-01-18T00:51:10.665Z,72.80
2023-01-18T00:53:39.181Z,72.70
2023-01-18T00:56:08.821Z,72.60
2023-01-18T00:58:37.605Z,72.60
2023-01-18T01:01:07.088Z,72.50
2023-01-18T01:03:51.318Z,72.50
2023-01-18T01:06:40.237Z,72.50
2023-01-18T01:09:08.427Z,72.70
2023-01-18T01:11:36.569Z,72.30
2023-01-18T01:14:23.891Z,72.50
2023-01-18T01:17:10.603Z,72.40
2023-01-18T01:20:00.941Z,72.50
2023-01-18T01:22:46.851Z,72.20
2023-01-18T01:25:37.287Z,72.30
2023-01-18T01:28:07.876Z,72.60
2023-01-18T01:30:43.709Z,72.90
2023-01-18T01:36:02.811Z,73.30
2023-01-18T01:38:35.175Z,73.40
2023-01-18T01:41:08.781Z,73.60
2023-01-18T01:43:41.810Z,73.90
2023-01-18T01:46:25.831Z,73.80
2023-01-18T01:49:02.947Z,74.00
2023-01-18T01:51:45.749Z,74.20
2023-01-18T01:54:25.615Z,74.20
2023-01-18T01:57:02.813Z,74.40
2023-01-18T01:59:32.021Z,74.50
2023-01-18T02:02:03.866Z,74.90
2023-01-18T02:04:33.701Z,75.30
2023-01-18T02:07:04.414Z,75.40
2023-01-18T02:09:35.801Z,75.20
2023-01-18T02:12:04.346Z,75.30
2023-01-18T02:14:36.083Z,75.30
2023-01-18T02:17:22.836Z,75.10
2023-01-18T02:20:42.743Z,75.20
2023-01-18T02:23:48.083Z,75.10
2023-01-18T02:27:07.533Z,75.30
2023-01-18T02:30:09.705Z,75.50
2023-01-18T02:32:49.307Z,75.60
2023-01-18T02:35:25.658Z,75.70
2023-01-18T02:38:08.628Z,75.80
2023-01-18T02:41:15.836Z,75.80
2023-01-18T02:44:04.584Z,76.10
2023-01-18T02:46:39.708Z,76.00
2023-01-18T02:49:10.480Z,76.10
2023-01-18T02:51:44.623Z,76.10
2023-01-18T02:54:24.829Z,76.00
2023-01-18T02:56:59.981Z,76.00
2023-01-18T02:59:36.890Z,76.00
2023-01-18T03:02:13.165Z,75.80
2023-01-18T03:04:56.303Z,76.30
2023-01-18T03:07:31.492Z,76.50
2023-01-18T03:10:03.905Z,76.80
2023-01-18T03:12:49.635Z,77.00
2023-01-18T03:15:27.464Z,77.20
2023-01-18T03:18:02.357Z,77.40
2023-01-18T03:20:34.346Z,77.40
2023-01-18T03:23:26.327Z,77.80
2023-01-18T03:26:00.876Z,78.20
2023-01-18T03:28:55.090Z,78.50
2023-01-18T03:31:49.677Z,78.40
2023-01-18T03:34:31.989Z,78.60
2023-01-18T03:37:04.685Z,78.60
2023-01-18T03:39:39.587Z,78.90
2023-01-18T03:42:14.709Z,79.20
2023-01-18T03:44:51.281Z,79.10
2023-01-18T03:47:23.837Z,79.30
2023-01-18T03:49:54.456Z,79.20
2023-01-18T03:52:32.428Z,79.50
2023-01-18T03:55:15.561Z,79.70
2023-01-18T03:57:50.669Z,79.90
2023-01-18T04:00:26.715Z,80.20
2023-01-18T04:03:01.607Z,80.20
2023-01-18T04:05:41.432Z,80.20
2023-01-18T04:08:10.970Z,80.10
2023-01-18T04:10:45.379Z,80.30
2023-01-18T04:13:16.058Z,80.20
2023-01-18T04:15:46.421Z,80.10
2023-01-18T04:18:15.097Z,79.90
2023-01-18T04:20:45.737Z,80.10
2023-01-18T04:23:13.961Z,80.00
2023-01-18T04:25:52.027Z,80.10
2023-01-18T04:28:27.619Z,80.00
2023-01-18T04:31:00.389Z,80.10
2023-01-18T04:33:28.856Z,80.00
2023-01-18T04:36:01.965Z,80.10
2023-01-18T04:38:33.561Z,79.90
2023-01-18T04:41:05.324Z,79.80
2023-01-18T04:43:36.722Z,79.90
2023-01-18T04:46:05.062Z,80.00
2023-01-18T04:48:37.087Z,79.90
2023-01-18T04:51:11.974Z,79.70
2023-01-18T04:53:41.178Z,79.80
2023-01-18T04:56:13.537Z,79.40
2023-01-18T04:58:41.986Z,79.50
2023-01-18T05:01:15.063Z,79.70
2023-01-18T05:03:44.832Z,79.60
2023-01-18T05:06:21.315Z,79.60
2023-01-18T05:08:52.468Z,79.50
2023-01-18T05:11:23.267Z,79.50
2023-01-18T05:13:51.711Z,79.50
2023-01-18T05:16:22.744Z,79.40
2023-01-18T05:18:51.757Z,79.40
2023-01-18T05:21:22.840Z,79.40
2023-01-18T05:23:54.803Z,79.30
2023-01-18T05:26:24.995Z,79.30
2023-01-18T05:28:58.518Z,79.30
2023-01-18T05:31:29.464Z,79.30
2023-01-18T05:33:58.748Z,79.30
2023-01-18T05:36:28.501Z,79.40
2023-01-18T05:38:58.750Z,79.40
2023-01-18T05:41:28.051Z,79.30
2023-01-18T05:43:56.141Z,79.00
2023-01-18T05:46:32.860Z,79.20
2023-01-18T05:49:00.990Z,79.20
2023-01-18T05:51:31.101Z,79.20
2023-01-18T05:54:01.842Z,79.10
2023-01-18T05:56:33.067Z,79.20
2023-01-18T05:59:01.285Z,79.20
2023-01-18T06:01:32.338Z,79.30
2023-01-18T06:04:03.140Z,79.30
2023-01-18T06:06:34.852Z,79.30
2023-01-18T06:09:07.980Z,79.20
2023-01-18T06:11:36.750Z,79.20
2023-01-18T06:14:06.090Z,79.10
2023-01-18T06:16:35.509Z,78.90
2023-01-18T06:19:06.622Z,78.90
2023-01-18T06:21:36.168Z,79.00
2023-01-18T06:24:04.803Z,79.00
2023-01-18T06:26:32.994Z,79.00
2023-01-18T06:29:04.557Z,78.90
2023-01-18T06:31:35.865Z,79.00
2023-01-18T06:34:10.351Z,79.00
2023-01-18T06:36:45.202Z,78.90
2023-01-18T06:39:13.334Z,79.00
2023-01-18T06:41:41.587Z,79.10
2023-01-18T06:44:09.906Z,79.10
2023-01-18T06:46:38.231Z,79.00
2023-01-18T06:49:10.165Z,79.10
2023-01-18T06:51:42.163Z,79.10
2023-01-18T06:54:14.845Z,79.00
2023-01-18T06:56:42.978Z,79.20
2023-01-18T06:59:11.195Z,79.20
2023-01-18T07:01:41.184Z,79.20
2023-01-18T07:04:09.780Z,79.20
2023-01-18T07:06:39.469Z,79.10
2023-01-18T07:09:09.942Z,79.00
2023-01-18T07:11:38.094Z,79.10
2023-01-18T07:14:14.959Z,79.10
2023-01-18T07:16:43.488Z,79.10
2023-01-18T07:19:23.994Z,79.10
2023-01-18T07:21:56.455Z,79.10
2023-01-18T07:24:26.981Z,79.10
2023-01-18T07:26:55.448Z,79.20
2023-01-18T07:29:24.930Z,79.20
2023-01-18T07:31:53.298Z,79.30
2023-01-18T07:34:26.913Z,79.10
2023-01-18T07:37:01.173Z,79.10
2023-01-18T07:39:29.236Z,79.00
2023-01-18T07:41:57.482Z,78.90
2023-01-18T07:44:26.581Z,79.00
2023-01-18T07:46:55.719Z,78.80
2023-01-18T07:49:25.420Z,79.00
2023-01-18T07:51:54.451Z,79.10
2023-01-18T07:54:29.668Z,78.90
2023-01-18T07:56:59.701Z,78.80
2023-01-18T07:59:30.988Z,79.00
2023-01-18T08:02:04.243Z,79.00
2023-01-18T08:04:33.677Z,78.90
2023-01-18T08:07:18.082Z,78.70
2023-01-18T08:10:06.108Z,78.80
2023-01-18T08:12:35.775Z,78.70
2023-01-18T08:15:07.205Z,78.60
2023-01-18T08:17:38.046Z,78.60
2023-01-18T08:20:09.859Z,78.60
2023-01-18T08:22:39.553Z,78.50
2023-01-18T08:25:13.439Z,78.50
2023-01-18T08:27:46.698Z,78.40
2023-01-18T08:30:18.803Z,78.40
2023-01-18T08:32:49.662Z,78.30
2023-01-18T08:35:17.853Z,78.30
2023-01-18T08:37:45.981Z,78.30
2023-01-18T08:40:25.488Z,78.20
2023-01-18T08:42:58.996Z,78.20
2023-01-18T08:45:32.425Z,78.30
2023-01-18T08:48:13.971Z,78.20
2023-01-18T08:50:46.306Z,78.10
2023-01-18T08:53:18.632Z,78.00
2023-01-18T08:56:21.997Z,78.10
2023-01-18T08:59:00.678Z,78.10
2023-01-18T09:01:31.778Z,78.00
2023-01-18T09:04:02.518Z,78.10
2023-01-18T09:09:14.407Z,78.00
2023-01-18T09:14:35.112Z,78.00
2023-01-18T09:17:04.988Z,78.00
2023-01-18T09:19:33.241Z,77.90
2023-01-18T09:22:01.449Z,77.80
2023-01-18T09:24:39.331Z,77.80
2023-01-18T09:27:07.457Z,77.70
2023-01-18T09:29:40.771Z,77.70
2023-01-18T09:32:10.768Z,77.60
2023-01-18T09:34:39.381Z,77.40
2023-01-18T09:37:07.751Z,77.50
2023-01-18T09:39:51.711Z,77.40
2023-01-18T09:42:24.000Z,77.50
2023-01-18T09:44:58.617Z,77.00
2023-01-18T09:47:34.142Z,77.10
2023-01-18T09:50:20.792Z,76.90
2023-01-18T09:53:01.046Z,77.20
2023-01-18T09:55:43.468Z,77.20
2023-01-18T09:58:29.601Z,77.10
2023-01-18T10:01:14.639Z,77.00
2023-01-18T10:03:52.944Z,76.80
2023-01-18T10:06:28.256Z,76.90
2023-01-18T10:09:12.818Z,76.70
2023-01-18T10:11:51.452Z,76.30
2023-01-18T10:14:28.478Z,76.40
2023-01-18T10:17:03.673Z,76.60
2023-01-18T10:19:33.573Z,76.50
2023-01-18T10:22:07.540Z,76.40
2023-01-18T10:24:45.301Z,76.10
2023-01-18T10:27:35.963Z,76.50
2023-01-18T10:30:28.876Z,76.60
2023-01-18T10:33:03.096Z,76.80
2023-01-18T10:35:35.062Z,76.60
2023-01-18T10:38:07.260Z,76.60
2023-01-18T10:40:36.927Z,76.40
2023-01-18T10:43:07.926Z,76.20
2023-01-18T10:45:36.720Z,76.10
2023-01-18T10:48:30.384Z,76.00
2023-01-18T10:51:00.569Z,75.90
2023-01-18T10:53:32.141Z,76.10
2023-01-18T10:56:04.422Z,76.10
2023-01-18T10:58:35.846Z,76.00
2023-01-18T11:01:05.031Z,75.80
2023-01-18T11:06:55.106Z,75.80
2023-01-18T11:09:45.030Z,75.60
2023-01-18T11:12:41.931Z,75.40
2023-01-18T11:15:35.088Z,75.20
2023-01-18T11:18:10.943Z,74.90
2023-01-18T11:20:46.219Z,74.70
2023-01-18T11:23:25.273Z,74.40
2023-01-18T11:26:03.892Z,74.00
2023-01-18T11:28:40.525Z,74.10
2023-01-18T11:31:14.002Z,74.10
2023-01-18T11:33:51.082Z,73.30
2023-01-18T11:36:37.458Z,73.30
2023-01-18T11:39:45.480Z,73.10
2023-01-18T11:42:25.533Z,73.40
2023-01-18T11:45:23.319Z,73.40
2023-01-18T11:48:13.051Z,73.20
2023-01-18T11:50:45.383Z,72.60
2023-01-18T11:53:39.372Z,72.40
2023-01-18T11:56:13.739Z,71.90
2023-01-18T11:58:43.291Z,71.40
2023-01-18T12:01:46.323Z,71.70
2023-01-18T12:04:36.659Z,71.30
2023-01-18T12:07:40.878Z,71.40
2023-01-18T12:10:29.014Z,71.40
2023-01-18T12:13:14.304Z,71.00
2023-01-18T12:15:57.424Z,71.10
2023-01-18T12:18:48.745Z,71.00
2023-01-18T12:21:24.609Z,70.70
2023-01-18T12:24:08.677Z,70.60
2023-01-18T12:26:52.283Z,70.60
2023-01-18T12:29:45.089Z,70.20
2023-01-18T12:32:26.719Z,70.40
2023-01-18T12:35:19.032Z,70.20
2023-01-18T12:37:59.706Z,70.40
2023-01-18T12:40:41.993Z,70.30
2023-01-18T12:43:23.148Z,70.10
2023-01-18T12:46:03.804Z,70.40
2023-01-18T12:48:35.996Z,70.30
2023-01-18T12:51:11.021Z,70.20
2023-01-18T12:53:46.226Z,70.20
2023-01-18T12:56:20.123Z,70.00
2023-01-18T12:58:54.612Z,70.20
2023-01-18T13:01:25.215Z,69.60
2023-01-18T13:04:01.026Z,69.80
2023-01-18T13:06:33.930Z,69.90
2023-01-18T13:09:16.306Z,69.70
2023-01-18T13:11:56.326Z,69.40
2023-01-18T13:14:37.455Z,69.20
2023-01-18T13:17:13.460Z,69.30
2023-01-18T13:19:52.037Z,69.40
2023-01-18T13:22:28.570Z,69.90
2023-01-18T13:25:37.433Z,69.60
2023-01-18T13:28:14.859Z,69.90
2023-01-18T13:30:55.068Z,69.60
2023-01-18T13:33:25.267Z,69.60
2023-01-18T13:35:57.064Z,69.70
2023-01-18T13:38:40.685Z,69.70
2023-01-18T13:41:11.651Z,69.90
2023-01-18T13:44:12.736Z,69.80
2023-01-18T13:46:52.364Z,69.10
2023-01-18T13:49:38.846Z,69.30
2023-01-18T13:52:34.474Z,69.20
2023-01-18T13:55:24.211Z,69.40
2023-01-18T13:57:55.845Z,69.30
2023-01-18T14:00:25.676Z,69.40
2023-01-18T14:03:04.904Z,69.00
2023-01-18T14:05:38.917Z,69.20
2023-01-18T14:08:07.690Z,68.80
2023-01-18T14:10:38.975Z,69.10
2023-01-18T14:13:09.296Z,69.00
2023-01-18T14:15:52.020Z,68.90
2023-01-18T14:18:26.523Z,68.90
2023-01-18T14:21:05.528Z,69.10
2023-01-18T14:23:55.496Z,69.10
2023-01-18T14:26:28.426Z,69.30
2023-01-18T14:29:00.654Z,69.20
2023-01-18T14:31:32.447Z,69.20
2023-01-18T14:34:25.987Z,69.50
2023-01-18T14:36:55.201Z,69.70
2023-01-18T14:39:23.715Z,69.80
2023-01-18T14:41:55.783Z,69.70
2023-01-18T14:44:25.995Z,70.00
2023-01-18T14:46:57.125Z,70.30
2023-01-18T14:49:30.124Z,70.30
2023-01-18T14:51:59.672Z,70.40
2023-01-18T14:54:28.095Z,70.50
2023-01-18T14:57:02.796Z,70.50
2023-01-18T14:59:32.200Z,70.60
2023-01-18T15:02:01.678Z,70.80
2023-01-18T15:04:36.649Z,70.80
2023-01-18T15:07:10.335Z,70.90
2023-01-18T15:09:41.217Z,71.10
2023-01-18T15:12:11.724Z,71.20
2023-01-18T15:14:44.908Z,71.40
2023-01-18T15:17:21.542Z,71.30
2023-01-18T15:19:53.890Z,71.40
2023-01-18T15:22:25.924Z,71.30
2023-01-18T15:24:54.298Z,71.50
2023-01-18T15:27:22.631Z,71.70
2023-01-18T15:29:56.518Z,71.80
2023-01-18T15:32:28.115Z,71.60
2023-01-18T15:35:14.144Z,71.80
2023-01-18T15:37:43.756Z,71.70
2023-01-18T15:40:27.747Z,72.10
2023-01-18T15:43:08.192Z,72.10
2023-01-18T15:45:39.571Z,72.10
2023-01-18T15:48:10.528Z,72.00
2023-01-18T15:50:45.495Z,72.10
2023-01-18T15:53:20.584Z,72.50
2023-01-18T15:55:52.675Z,72.70
2023-01-18T15:58:27.704Z,72.70
2023-01-18T16:00:57.914Z,72.70
2023-01-18T16:03:28.415Z,72.70
2023-01-18T16:06:16.959Z,72.70
2023-01-18T16:08:59.648Z,72.80
2023-01-18T16:11:31.267Z,73.00
2023-01-18T16:14:01.806Z,73.00
2023-01-18T16:16:30.640Z,73.20
2023-01-18T16:19:06.841Z,73.30
2023-01-18T16:21:42.729Z,73.30
2023-01-18T16:24:24.723Z,73.40
2023-01-18T16:27:03.598Z,73.60
2023-01-18T16:29:45.125Z,73.70
2023-01-18T16:32:33.243Z,73.70
2023-01-18T16:35:03.631Z,73.70
2023-01-18T16:37:50.176Z,73.70
2023-01-18T16:40:24.835Z,73.80
2023-01-18T16:43:03.745Z,73.80
2023-01-18T16:45:35.438Z,73.80
2023-01-18T16:48:04.515Z,73.80
2023-01-18T16:50:33.077Z,73.80
2023-01-18T16:53:03.868Z,73.80
2023-01-18T16:55:31.975Z,73.80
2023-01-18T16:58:00.398Z,74.00
2023-01-18T17:00:35.660Z,74.10
2023-01-18T17:03:03.880Z,74.20
2023-01-18T17:05:32.179Z,74.20
2023-01-18T17:08:00.721Z,74.20
2023-01-18T17:10:35.243Z,74.40
2023-01-18T17:13:04.325Z,74.40
2023-01-18T17:15:34.771Z,74.40
2023-01-18T17:18:03.426Z,74.30
2023-01-18T17:20:32.379Z,74.40
2023-01-18T17:23:01.306Z,74.50
2023-01-18T17:25:35.957Z,74.50
2023-01-18T17:28:06.857Z,74.50
2023-01-18T17:30:38.998Z,74.40
2023-01-18T17:33:15.832Z,74.40
2023-01-18T17:35:47.838Z,74.50
2023-01-18T17:38:23.684Z,74.40
2023-01-18T17:41:11.331Z,74.50
2023-01-18T17:43:41.527Z,74.50
2023-01-18T17:46:10.481Z,74.50
2023-01-18T17:48:38.975Z,74.70
2023-01-18T17:51:07.826Z,74.70
2023-01-18T17:53:36.810Z,75.00
2023-01-18T17:56:09.593Z,75.10
2023-01-18T17:58:37.854Z,75.20
2023-01-18T18:01:08.637Z,75.20
2023-01-18T18:03:37.053Z,75.10
2023-01-18T18:06:06.075Z,75.10
2023-01-18T18:08:34.769Z,75.10
2023-01-18T18:11:02.949Z,75.00
2023-01-18T18:13:32.541Z,75.20
2023-01-18T18:16:00.756Z,75.20
2023-01-18T18:18:29.280Z,75.30
2023-01-18T18:20:58.974Z,75.30
2023-01-18T18:23:27.625Z,75.30
2023-01-18T18:25:56.650Z,75.30
2023-01-18T18:28:25.372Z,75.40
2023-01-18T18:30:56.724Z,75.30
2023-01-18T18:33:26.184Z,75.40
2023-01-18T18:35:54.520Z,75.40
2023-01-18T18:38:24.004Z,75.60
2023-01-18T18:40:52.972Z,75.60
2023-01-18T18:43:21.671Z,75.60
2023-01-18T18:45:49.816Z,75.60
2023-01-18T18:48:19.531Z,75.80
2023-01-18T18:50:48.347Z,75.90
2023-01-18T18:53:18.111Z,76.00
2023-01-18T18:55:47.709Z,76.10
2023-01-18T18:58:15.891Z,75.90
2023-01-18T19:00:44.119Z,76.20
2023-01-18T19:03:12.240Z,76.20
2023-01-18T19:05:43.382Z,76.30
2023-01-18T19:08:11.889Z,76.20
2023-01-18T19:10:40.068Z,76.10
2023-01-18T19:13:08.216Z,76.10
2023-01-18T19:15:36.318Z,76.10
2023-01-18T19:18:04.608Z,76.10
2023-01-18T19:20:33.325Z,76.10
2023-01-18T19:23:04.004Z,76.10
2023-01-18T19:25:32.212Z,76.00
2023-01-18T19:28:00.583Z,75.90
2023-01-18T19:30:30.311Z,75.90
2023-01-18T19:33:00.110Z,75.70
2023-01-18T19:35:28.406Z,75.70
2023-01-18T19:37:56.649Z,75.60
2023-01-18T19:40:26.183Z,75.60
2023-01-18T19:42:56.052Z,75.60
2023-01-18T19:45:28.125Z,75.50
2023-01-18T19:47:57.612Z,75.50
2023-01-18T19:50:26.299Z,75.50
2023-01-18T19:52:54.648Z,75.50
2023-01-18T19:55:22.977Z,75.60
2023-01-18T19:57:55.357Z,75.50
2023-01-18T20:00:23.700Z,75.50
2023-01-18T20:02:51.998Z,75.60
2023-01-18T20:05:20.292Z,75.50
2023-01-18T20:07:48.493Z,75.30
2023-01-18T20:10:20.283Z,75.20
2023-01-18T20:12:49.360Z,75.20
2023-01-18T20:15:19.923Z,75.30
2023-01-18T20:17:48.181Z,75.40
2023-01-18T20:20:24.302Z,75.50
2023-01-18T20:22:59.655Z,75.40
2023-01-18T20:25:28.070Z,75.40
2023-01-18T20:27:56.374Z,75.50
2023-01-18T20:30:25.915Z,75.50
2023-01-18T20:32:54.084Z,75.60
2023-01-18T20:35:24.680Z,75.50
2023-01-18T20:37:54.509Z,75.50
2023-01-18T20:40:22.705Z,75.50
2023-01-18T20:42:50.822Z,75.40
2023-01-18T20:45:19.050Z,75.60
2023-01-18T20:47:48.560Z,75.70
2023-01-18T20:50:17.931Z,75.80
2023-01-18T20:52:46.536Z,75.90
2023-01-18T20:55:14.923Z,75.80
2023-01-18T20:57:43.214Z,76.00
2023-01-18T21:00:13.600Z,76.10
2023-01-18T21:02:42.761Z,76.10
2023-01-18T21:05:12.717Z,76.00
2023-01-18T21:07:41.904Z,76.00
2023-01-18T21:10:11.857Z,75.90
2023-01-18T21:12:41.420Z,75.90
2023-01-18T21:15:10.280Z,75.90
2023-01-18T21:17:39.752Z,75.80
2023-01-18T21:20:09.047Z,75.80
2023-01-18T21:22:38.833Z,75.90
2023-01-18T21:25:08.690Z,75.80
2023-01-18T21:27:37.092Z,75.80
2023-01-18T21:30:06.253Z,75.80
2023-01-18T21:32:34.385Z,75.70
2023-01-18T21:35:02.605Z,75.70
2023-01-18T21:37:31.145Z,75.70
2023-01-18T21:40:00.788Z,75.90
2023-01-18T21:42:46.725Z,75.90
2023-01-18T21:45:33.000Z,76.00
2023-01-18T21:48:01.546Z,76.10
2023-01-18T21:50:47.354Z,76.10
2023-01-18T21:53:33.718Z,76.10
2023-01-18T21:56:03.273Z,76.10
2023-01-18T21:58:48.649Z,76.10
2023-01-18T22:01:19.084Z,76.10
2023-01-18T22:04:04.755Z,76.00
2023-01-18T22:06:33.088Z,76.00
2023-01-18T22:09:01.384Z,76.20
2023-01-18T22:11:30.938Z,76.20
2023-01-18T22:13:59.080Z,76.20
2023-01-18T22:16:30.478Z,76.30
2023-01-18T22:18:59.243Z,76.30
2023-01-18T22:21:29.456Z,76.30
2023-01-18T22:23:57.616Z,76.20
2023-01-18T22:26:28.698Z,76.20
2023-01-18T22:28:58.534Z,76.20
2023-01-18T22:31:27.278Z,76.20
2023-01-18T22:33:57.304Z,76.10
2023-01-18T22:36:25.731Z,76.20
2023-01-18T22:38:54.125Z,76.20
2023-01-18T22:41:26.953Z,76.30
2023-01-18T22:43:56.039Z,76.40
2023-01-18T22:46:25.982Z,76.30
2023-01-18T22:48:54.172Z,76.30
2023-01-18T22:51:24.248Z,76.20
2023-01-18T22:53:52.790Z,76.30
2023-01-18T22:56:23.073Z,76.20
2023-01-18T22:58:52.098Z,76.30
2023-01-18T23:01:22.548Z,76.40
2023-01-18T23:03:52.707Z,76.40
2023-01-18T23:06:21.991Z,76.30
2023-01-18T23:08:50.478Z,76.40
2023-01-18T23:11:20.965Z,76.50
2023-01-18T23:14:05.228Z,76.40
2023-01-18T23:16:51.306Z,76.40
2023-01-18T23:19:21.581Z,76.50
2023-01-18T23:21:50.150Z,76.40
2023-01-18T23:24:18.455Z,76.40
2023-01-18T23:26:46.967Z,76.50
2023-01-18T23:29:15.563Z,76.50
2023-01-18T23:31:44.195Z,76.20
2023-01-18T23:34:12.393Z,76.50
2023-01-18T23:36:41.906Z,76.60
2023-01-18T23:39:27.627Z,76.40
2023-01-18T23:42:13.398Z,76.40
2023-01-18T23:44:59.097Z,76.40
2023-01-18T23:47:44.448Z,76.30
2023-01-18T23:50:30.085Z,76.20
2023-01-18T23:53:18.261Z,76.30
2023-01-18T23:55:46.674Z,76.10
2023-01-18T23:58:14.818Z,76.10
